Поддержите существование нашего сайта

Посадка с боковым ветром в Стригино, XPlane11 Просмотр ZIP-архива

69097-posadka.zip

Имя файла Дата Размер
посадка.mp4 22.08.2020 15:30 235 MB
avsim_su.diz 22.08.2020 14:45 310 B
Итого: 235 MB
Посадка с боковым ветром в Стригино на А330-300. По хорошему надо было уходить на второй, но сел. Метар: UWGG 221100Z 01004MPS 270V050 CAVOK 21/09 Q1017 R36R/090070 NOSIG Записывал видео на телефон с повтора, по этому без звука и плохого качества...
→ Размер: 235 MB
→ Дата: 7 месяцев назад (22.08.2020 17:23)
→ Автор: Сергей Перевалов (Сергей1969)
→ Прислал: Сергей1969 (прислал 7 файлов )
→ Разрешил модератор: Lenya69
→ Лицензия: Freeware - Бесплатная версия, распространение не ограничено
→ Скачан: 3 раза